TimeEST,TemperatureF,Dew PointF,Humidity,Sea Level PressureIn,VisibilityMPH,Wind Direction,Wind SpeedMPH,Gust SpeedMPH,PrecipitationIn,Events,Conditions,WindDirDegrees,DateUTC
12:53 AM,36.0,21.9,57,30.30,10.0,NW,16.1,35.7,N/A,,Overcast,320,2013-01-10 05:53:00
1:53 AM,36.0,21.9,57,30.34,10.0,NW,16.1,29.9,N/A,,Overcast,310,2013-01-10 06:53:00
2:53 AM,35.1,23.0,61,30.35,10.0,NW,15.0,25.3,N/A,,Overcast,320,2013-01-10 07:53:00
3:49 AM,35.6,24.8,65,30.34,10.0,NW,8.1,16.1,N/A,,Overcast,320,2013-01-10 08:49:00
3:53 AM,35.1,24.1,64,30.38,10.0,WNW,10.4,-,N/A,,Overcast,300,2013-01-10 08:53:00
4:53 AM,34.0,23.0,64,30.41,10.0,NNW,11.5,24.2,N/A,,Overcast,330,2013-01-10 09:53:00
5:53 AM,34.0,21.9,61,30.43,10.0,NNW,13.8,21.9,N/A,,Overcast,330,2013-01-10 10:53:00
6:30 AM,33.8,21.2,60,30.40,10.0,NW,10.4,24.2,N/A,,Overcast,320,2013-01-10 11:30:00
6:40 AM,33.8,21.2,60,30.41,10.0,NNW,9.2,-,N/A,,Overcast,330,2013-01-10 11:40:00
6:53 AM,33.1,21.9,64,30.46,10.0,NW,16.1,24.2,N/A,,Overcast,310,2013-01-10 11:53:00
7:33 AM,33.8,21.2,60,30.44,10.0,NW,12.7,25.3,N/A,,Overcast,320,2013-01-10 12:33:00
7:53 AM,33.1,21.9,64,30.49,10.0,NNW,12.7,-,N/A,,Mostly Cloudy,340,2013-01-10 12:53:00
8:53 AM,32.0,23.0,69,30.53,10.0,NNW,12.7,19.6,N/A,,Mostly Cloudy,330,2013-01-10 13:53:00
9:32 AM,33.8,21.2,60,30.49,10.0,NNW,15.0,23.0,N/A,,Scattered Clouds,340,2013-01-10 14:32:00
9:53 AM,34.0,21.9,61,30.53,10.0,NNW,16.1,26.5,N/A,,Clear,330,2013-01-10 14:53:00
10:53 AM,35.1,23.0,61,30.54,10.0,NNW,16.1,24.2,N/A,,Partly Cloudy,340,2013-01-10 15:53:00
11:53 AM,36.0,24.1,62,30.52,10.0,NNW,15.0,-,N/A,,Mostly Cloudy,340,2013-01-10 16:53:00
12:53 PM,37.0,24.1,59,30.51,10.0,NNW,10.4,-,N/A,,Mostly Cloudy,330,2013-01-10 17:53:00
1:03 PM,35.6,24.8,65,30.46,10.0,NW,8.1,16.1,N/A,,Scattered Clouds,310,2013-01-10 18:03:00
1:53 PM,37.0,24.1,59,30.51,10.0,NNW,8.1,-,N/A,,Clear,340,2013-01-10 18:53:00
2:53 PM,36.0,24.1,62,30.53,10.0,North,9.2,-,N/A,,Partly Cloudy,350,2013-01-10 19:53:00
3:53 PM,35.1,25.0,67,30.54,10.0,North,6.9,-,N/A,,Clear,360,2013-01-10 20:53:00
4:53 PM,33.1,24.1,70,30.54,10.0,North,4.6,-,N/A,,Clear,360,2013-01-10 21:53:00
5:53 PM,30.9,23.0,72,30.53,10.0,NNE,5.8,-,N/A,,Clear,30,2013-01-10 22:53:00
6:53 PM,30.9,23.0,72,30.55,10.0,Calm,Calm,-,N/A,,Clear,0,2013-01-10 23:53:00
7:53 PM,30.0,23.0,75,30.54,10.0,NE,3.5,-,N/A,,Clear,40,2013-01-11 00:53:00
8:53 PM,30.0,23.0,75,30.54,10.0,ENE,3.5,-,N/A,,Clear,60,2013-01-11 01:53:00
9:53 PM,28.9,23.0,78,30.53,10.0,East,6.9,-,N/A,,Clear,100,2013-01-11 02:53:00
10:53 PM,28.0,21.9,78,30.52,10.0,SE,5.8,-,N/A,,Clear,130,2013-01-11 03:53:00
11:53 PM,28.9,21.9,75,30.50,10.0,East,4.6,-,N/A,,Clear,100,2013-01-11 04:53:00